Time;durP1;ratioP1;P1;durP2;ratioP2;P2;SDS_P1;SDS_P2;PMS_P1;PMS_P2;Temp;Humidity;BMP_temperature;BMP_pressure;BME280_temperature;BME280_humidity;BME280_pressure;Samples;Min_cycle;Max_cycle;Signal;HPM_P1;HPM_P2
2021/09/15 00:01:46;;;;;;;22.67;20.45;;;;;;;;;;4969884;28;20509;-87
2021/09/15 00:04:13;;;;;;;21.98;19.70;;;;;;;;;;4969550;28;20402;-87
2021/09/15 00:06:39;;;;;;;24.05;21.45;;;;;;;;;;4969472;28;20841;-85
2021/09/15 00:09:08;;;;;;;22.98;20.48;;;;;;;;;;4969275;28;20457;-86
2021/09/15 00:11:35;;;;;;;22.90;20.42;;;;;;;;;;4969472;28;20410;-86
2021/09/15 00:14:03;;;;;;;23.85;21.30;;;;;;;;;;4969691;28;20403;-87
2021/09/15 00:16:29;;;;;;;24.27;21.67;;;;;;;;;;4969997;28;20442;-86
2021/09/15 00:18:57;;;;;;;23.92;21.50;;;;;;;;;;4961866;28;20499;-88
2021/09/15 00:21:23;;;;;;;23.47;21.13;;;;;;;;;;4970228;28;20442;-87
2021/09/15 00:23:50;;;;;;;23.35;20.95;;;;;;;;;;4970415;28;20431;-87
2021/09/15 00:26:18;;;;;;;23.13;20.70;;;;;;;;;;4968899;28;20902;-88
2021/09/15 00:28:45;;;;;;;22.95;20.58;;;;;;;;;;4969606;28;20422;-88
2021/09/15 00:31:12;;;;;;;22.83;20.42;;;;;;;;;;4970386;28;20902;-88
2021/09/15 00:33:39;;;;;;;23.10;20.50;;;;;;;;;;4971664;28;20410;-88
2021/09/15 00:36:06;;;;;;;22.08;19.83;;;;;;;;;;4976215;28;20404;-88
2021/09/15 00:38:33;;;;;;;23.27;20.98;;;;;;;;;;4972517;28;20382;-88
2021/09/15 00:40:59;;;;;;;22.53;20.23;;;;;;;;;;4981915;28;20402;-88
2021/09/15 00:43:28;;;;;;;23.83;20.07;;;;;;;;;;4969982;28;20940;-88
2021/09/15 00:45:56;;;;;;;24.65;20.38;;;;;;;;;;4970322;28;20414;-88
2021/09/15 00:48:23;;;;;;;22.67;19.57;;;;;;;;;;4968695;28;20402;-88
2021/09/15 00:50:50;;;;;;;21.90;19.63;;;;;;;;;;4968591;28;20433;-88
2021/09/15 00:53:17;;;;;;;22.08;19.65;;;;;;;;;;4969732;28;20767;-88
2021/09/15 00:55:44;;;;;;;21.90;18.38;;;;;;;;;;4968223;28;20471;-87
2021/09/15 00:58:12;;;;;;;23.10;18.45;;;;;;;;;;4968712;28;20406;-88
2021/09/15 01:00:40;;;;;;;20.65;17.88;;;;;;;;;;4968484;28;20809;-88
2021/09/15 01:03:07;;;;;;;19.95;17.90;;;;;;;;;;4968124;28;20407;-87
2021/09/15 01:05:34;;;;;;;22.73;18.25;;;;;;;;;;4967104;28;20429;-88
2021/09/15 01:08:01;;;;;;;20.33;18.20;;;;;;;;;;4967269;28;20414;-87
2021/09/15 01:10:28;;;;;;;20.67;18.55;;;;;;;;;;4964820;28;20480;-88
2021/09/15 01:12:55;;;;;;;23.13;17.83;;;;;;;;;;4965560;28;20997;-88
2021/09/15 01:15:22;;;;;;;19.65;17.67;;;;;;;;;;4967263;28;20878;-88
2021/09/15 01:17:51;;;;;;;19.63;17.55;;;;;;;;;;4966288;28;20772;-88
2021/09/15 01:20:17;;;;;;;19.80;17.77;;;;;;;;;;4967375;28;20424;-88
2021/09/15 01:22:46;;;;;;;20.35;18.25;;;;;;;;;;4968579;28;20410;-88
2021/09/15 01:25:13;;;;;;;20.52;18.50;;;;;;;;;;4966010;28;20436;-88
2021/09/15 01:27:40;;;;;;;20.43;18.40;;;;;;;;;;4968303;28;20425;-88
2021/09/15 01:30:08;;;;;;;20.80;18.53;;;;;;;;;;4967092;28;20480;-88
2021/09/15 01:32:35;;;;;;;20.88;18.73;;;;;;;;;;4967600;28;20433;-87
2021/09/15 01:35:02;;;;;;;23.30;19.35;;;;;;;;;;4967771;28;20409;-88
2021/09/15 01:37:29;;;;;;;20.52;18.33;;;;;;;;;;4964410;28;20411;-88
2021/09/15 01:39:57;;;;;;;19.98;17.95;;;;;;;;;;4967361;28;20402;-87
2021/09/15 01:42:24;;;;;;;21.55;19.45;;;;;;;;;;4968089;28;20414;-88
2021/09/15 01:44:51;;;;;;;21.15;19.08;;;;;;;;;;4971494;28;20406;-88
2021/09/15 01:47:19;;;;;;;21.30;19.20;;;;;;;;;;4965482;28;20427;-88
2021/09/15 01:49:47;;;;;;;22.33;20.03;;;;;;;;;;4959670;28;20674;-87
2021/09/15 01:52:16;;;;;;;23.25;20.75;;;;;;;;;;4964992;28;20413;-88
2021/09/15 01:54:43;;;;;;;24.02;21.73;;;;;;;;;;4964915;28;20436;-87
2021/09/15 01:57:12;;;;;;;23.43;21.00;;;;;;;;;;4967828;28;20776;-88
2021/09/15 01:59:38;;;;;;;24.52;21.23;;;;;;;;;;4967212;28;20407;-88
2021/09/15 02:02:06;;;;;;;23.75;21.35;;;;;;;;;;4966522;28;20411;-87
2021/09/15 02:04:33;;;;;;;23.67;21.13;;;;;;;;;;4968317;28;20497;-88
2021/09/15 02:07:00;;;;;;;23.40;21.00;;;;;;;;;;4968505;28;20415;-88
2021/09/15 02:09:26;;;;;;;23.20;20.85;;;;;;;;;;4966092;28;20414;-88
2021/09/15 02:11:53;;;;;;;23.13;20.47;;;;;;;;;;4967969;28;20406;-87
2021/09/15 02:14:22;;;;;;;22.00;19.83;;;;;;;;;;4968614;28;20414;-87
2021/09/15 02:16:50;;;;;;;22.90;20.30;;;;;;;;;;4967660;28;20414;-88
2021/09/15 02:19:17;;;;;;;22.27;19.90;;;;;;;;;;4968281;28;20442;-88
2021/09/15 02:21:44;;;;;;;21.73;19.60;;;;;;;;;;4967901;28;20433;-88
2021/09/15 02:24:11;;;;;;;20.47;18.43;;;;;;;;;;4967729;28;20847;-88
2021/09/15 02:26:38;;;;;;;20.90;18.70;;;;;;;;;;4968695;28;20433;-87
2021/09/15 02:29:05;;;;;;;19.70;17.70;;;;;;;;;;4968463;28;20407;-88
2021/09/15 02:31:34;;;;;;;19.20;17.27;;;;;;;;;;4965639;28;20423;-88
2021/09/15 02:34:01;;;;;;;18.50;16.60;;;;;;;;;;4967722;28;20402;-88
2021/09/15 02:36:28;;;;;;;19.25;17.35;;;;;;;;;;4968060;28;20403;-88
2021/09/15 02:38:55;;;;;;;20.25;18.25;;;;;;;;;;4967743;28;20722;-88
2021/09/15 02:41:22;;;;;;;19.63;17.63;;;;;;;;;;4968455;28;20406;-88
2021/09/15 02:43:48;;;;;;;20.27;18.27;;;;;;;;;;4967968;28;20403;-88
2021/09/15 02:46:15;;;;;;;19.90;17.80;;;;;;;;;;4967661;28;20906;-88
2021/09/15 02:48:44;;;;;;;19.00;17.10;;;;;;;;;;4966495;28;20419;-87
2021/09/15 02:51:11;;;;;;;19.73;17.77;;;;;;;;;;4967776;28;20516;-87
2021/09/15 02:53:38;;;;;;;22.60;18.43;;;;;;;;;;4967646;28;20551;-88
2021/09/15 02:56:05;;;;;;;20.10;18.10;;;;;;;;;;4967657;28;20439;-88
2021/09/15 02:58:32;;;;;;;19.48;17.45;;;;;;;;;;4971826;28;20895;-87
2021/09/15 03:00:59;;;;;;;21.13;17.80;;;;;;;;;;4971438;28;20394;-88
2021/09/15 03:03:25;;;;;;;20.20;17.58;;;;;;;;;;4971821;28;20403;-87
2021/09/15 03:05:54;;;;;;;20.15;17.95;;;;;;;;;;4971315;28;20774;-87
2021/09/15 03:08:20;;;;;;;22.58;18.25;;;;;;;;;;4971029;28;20907;-87
2021/09/15 03:10:47;;;;;;;19.50;17.58;;;;;;;;;;4970789;28;20442;-88
2021/09/15 03:13:14;;;;;;;20.35;17.38;;;;;;;;;;4971034;28;20429;-88
2021/09/15 03:15:41;;;;;;;33.40;20.33;;;;;;;;;;4971045;28;20414;-88
2021/09/15 03:18:08;;;;;;;25.65;20.77;;;;;;;;;;4971357;28;20465;-88
2021/09/15 03:20:35;;;;;;;24.33;20.58;;;;;;;;;;4971874;28;20414;-88
2021/09/15 03:23:04;;;;;;;23.58;21.08;;;;;;;;;;4970771;28;20891;-87
2021/09/15 03:25:31;;;;;;;24.40;20.65;;;;;;;;;;4971813;28;20415;-88
2021/09/15 03:27:58;;;;;;;23.00;20.77;;;;;;;;;;4971185;28;20414;-88
2021/09/15 03:30:25;;;;;;;22.67;20.37;;;;;;;;;;4971203;28;20502;-88
2021/09/15 03:32:52;;;;;;;23.00;20.50;;;;;;;;;;4971359;28;20407;-88
2021/09/15 03:35:19;;;;;;;22.58;20.35;;;;;;;;;;4969806;28;20430;-88
2021/09/15 03:37:46;;;;;;;24.67;21.08;;;;;;;;;;4971144;28;20974;-88
2021/09/15 03:40:14;;;;;;;22.73;20.42;;;;;;;;;;4970948;28;20414;-88
2021/09/15 03:42:41;;;;;;;23.17;20.67;;;;;;;;;;4971650;28;20811;-88
2021/09/15 03:45:09;;;;;;;22.52;20.17;;;;;;;;;;4983132;28;20808;-88
2021/09/15 03:47:36;;;;;;;21.92;19.73;;;;;;;;;;4990402;28;20409;-88
2021/09/15 03:50:03;;;;;;;21.60;19.40;;;;;;;;;;4990243;28;20771;-88
2021/09/15 03:52:30;;;;;;;22.70;20.42;;;;;;;;;;4976871;28;20437;-87
2021/09/15 03:54:57;;;;;;;21.60;19.45;;;;;;;;;;4970329;28;20431;-87
2021/09/15 03:57:25;;;;;;;22.05;19.73;;;;;;;;;;4970006;28;20419;-87
2021/09/15 03:59:52;;;;;;;21.77;19.55;;;;;;;;;;4951494;29;20420;-87
2021/09/15 04:02:19;;;;;;;22.15;19.65;;;;;;;;;;4950449;29;20661;-87
2021/09/15 04:04:46;;;;;;;21.60;19.38;;;;;;;;;;4972847;28;20426;-88
2021/09/15 04:07:13;;;;;;;23.90;19.70;;;;;;;;;;4973971;28;20506;-88
2021/09/15 04:09:39;;;;;;;22.83;19.55;;;;;;;;;;4969136;28;20456;-88
2021/09/15 04:12:07;;;;;;;22.33;19.27;;;;;;;;;;4970913;28;20418;-88
2021/09/15 04:14:36;;;;;;;28.65;19.30;;;;;;;;;;4968043;28;20453;-88
2021/09/15 04:17:03;;;;;;;20.83;18.70;;;;;;;;;;4966835;28;20481;-88
2021/09/15 04:19:31;;;;;;;20.73;18.55;;;;;;;;;;4965732;28;20410;-87
2021/09/15 04:21:58;;;;;;;20.60;18.40;;;;;;;;;;4969466;28;20730;-88
2021/09/15 04:31:05;;;;;;;20.83;18.67;;;;;;;;;;4971185;28;20899;-88
2021/09/15 04:32:53;;;;;;;21.07;18.37;;;;;;;;;;4984013;28;20413;-86
2021/09/15 04:35:20;;;;;;;20.63;18.43;;;;;;;;;;4969278;28;20423;-88
2021/09/15 04:37:47;;;;;;;22.40;19.70;;;;;;;;;;4972031;28;20783;-87
2021/09/15 04:40:14;;;;;;;22.67;20.30;;;;;;;;;;4968428;28;20422;-88
2021/09/15 04:42:41;;;;;;;22.45;20.25;;;;;;;;;;4967029;28;20453;-87
2021/09/15 04:45:11;;;;;;;25.25;21.83;;;;;;;;;;4966811;28;20402;-87
2021/09/15 04:47:38;;;;;;;23.45;20.95;;;;;;;;;;4968864;28;20788;-88
2021/09/15 04:50:05;;;;;;;24.35;21.75;;;;;;;;;;4969249;28;20423;-87
2021/09/15 04:52:32;;;;;;;22.77;20.13;;;;;;;;;;4964379;28;20414;-88
2021/09/15 04:54:59;;;;;;;22.52;20.23;;;;;;;;;;4968665;28;20415;-87
2021/09/15 04:57:26;;;;;;;23.65;21.10;;;;;;;;;;4968891;28;20419;-87
2021/09/15 04:59:53;;;;;;;23.08;20.67;;;;;;;;;;4967968;28;20899;-87
2021/09/15 05:02:21;;;;;;;22.63;20.40;;;;;;;;;;4968593;28;20465;-88
2021/09/15 05:04:48;;;;;;;23.58;20.92;;;;;;;;;;4967850;28;20417;-88
2021/09/15 05:07:15;;;;;;;21.92;19.70;;;;;;;;;;4967890;28;20985;-88
2021/09/15 05:09:41;;;;;;;25.23;20.23;;;;;;;;;;4966716;28;20409;-88
2021/09/15 05:12:08;;;;;;;24.20;20.03;;;;;;;;;;4966425;28;20422;-88
2021/09/15 05:14:35;;;;;;;24.38;20.75;;;;;;;;;;4967131;28;20414;-88
2021/09/15 05:17:02;;;;;;;24.20;20.38;;;;;;;;;;4968322;28;20414;-87
2021/09/15 05:19:31;;;;;;;22.30;20.00;;;;;;;;;;4963428;28;20424;-88
2021/09/15 05:21:57;;;;;;;23.30;20.00;;;;;;;;;;4968155;28;20413;-88
2021/09/15 05:24:24;;;;;;;23.17;20.63;;;;;;;;;;4968253;28;20891;-88
2021/09/15 05:26:51;;;;;;;22.80;20.33;;;;;;;;;;4968880;28;20419;-88
2021/09/15 05:29:18;;;;;;;22.20;19.80;;;;;;;;;;4967151;28;20559;-88
2021/09/15 05:31:45;;;;;;;22.38;19.80;;;;;;;;;;4967710;28;20838;-88
2021/09/15 05:34:13;;;;;;;24.33;19.85;;;;;;;;;;4968008;28;20411;-88
2021/09/15 05:36:41;;;;;;;21.90;19.73;;;;;;;;;;4966403;28;20418;-88
2021/09/15 05:39:08;;;;;;;22.35;18.58;;;;;;;;;;4967041;28;20481;-89
2021/09/15 05:41:35;;;;;;;21.15;19.05;;;;;;;;;;4971368;28;20414;-88
2021/09/15 05:44:01;;;;;;;21.13;18.88;;;;;;;;;;4968304;28;20415;-88
2021/09/15 05:46:28;;;;;;;21.40;19.10;;;;;;;;;;4967192;28;20411;-87
2021/09/15 05:48:55;;;;;;;20.60;18.40;;;;;;;;;;4966731;28;20417;-87
2021/09/15 05:51:22;;;;;;;21.38;19.02;;;;;;;;;;4967404;28;20429;-88
2021/09/15 05:53:50;;;;;;;21.25;18.95;;;;;;;;;;4967063;28;20414;-87
2021/09/15 05:56:17;;;;;;;21.60;19.40;;;;;;;;;;4966580;28;20484;-87
2021/09/15 05:58:44;;;;;;;20.35;18.15;;;;;;;;;;4966060;28;20426;-88
2021/09/15 06:01:10;;;;;;;19.25;17.38;;;;;;;;;;4966701;28;20406;-87
2021/09/15 06:03:37;;;;;;;19.67;17.50;;;;;;;;;;4966434;28;20406;-87
2021/09/15 06:06:04;;;;;;;20.58;18.38;;;;;;;;;;4966277;28;20422;-87
2021/09/15 06:08:32;;;;;;;21.08;18.88;;;;;;;;;;4968006;28;20796;-87
2021/09/15 06:11:00;;;;;;;22.20;18.15;;;;;;;;;;4966645;28;20767;-87
2021/09/15 06:13:27;;;;;;;21.90;17.98;;;;;;;;;;4968030;28;20414;-87
2021/09/15 06:15:54;;;;;;;22.58;18.77;;;;;;;;;;4950619;28;20406;-87
2021/09/15 06:18:20;;;;;;;24.40;18.98;;;;;;;;;;4967631;28;20410;-87
2021/09/15 06:20:47;;;;;;;24.45;19.00;;;;;;;;;;4967288;28;20528;-86
2021/09/15 06:23:14;;;;;;;20.95;18.25;;;;;;;;;;4967627;28;20406;-85
2021/09/15 06:25:42;;;;;;;22.23;18.50;;;;;;;;;;4968227;28;20414;-86
2021/09/15 06:28:12;;;;;;;24.53;18.30;;;;;;;;;;4967224;28;20421;-88
2021/09/15 06:30:40;;;;;;;22.23;18.60;;;;;;;;;;4966549;28;20433;-88
2021/09/15 06:33:08;;;;;;;21.35;17.50;;;;;;;;;;4967634;28;20410;-86
2021/09/15 06:35:35;;;;;;;24.10;18.17;;;;;;;;;;4963448;28;20410;-87
2021/09/15 06:38:01;;;;;;;22.93;18.10;;;;;;;;;;4967690;28;20461;-87
2021/09/15 06:40:28;;;;;;;29.10;18.40;;;;;;;;;;4967610;28;20526;-85
2021/09/15 06:42:55;;;;;;;24.05;18.65;;;;;;;;;;4967636;28;20422;-87
2021/09/15 06:45:23;;;;;;;51.60;22.67;;;;;;;;;;4968799;28;20763;-87
2021/09/15 06:47:50;;;;;;;41.95;21.65;;;;;;;;;;4967380;28;20419;-85
2021/09/15 06:50:17;;;;;;;27.60;20.42;;;;;;;;;;4966651;28;20410;-87
2021/09/15 06:52:44;;;;;;;23.33;19.48;;;;;;;;;;4967550;28;20411;-87
2021/09/15 06:55:11;;;;;;;21.42;19.05;;;;;;;;;;4966647;28;20418;-87
2021/09/15 06:57:38;;;;;;;21.38;18.83;;;;;;;;;;4966926;28;20410;-86
2021/09/15 07:00:07;;;;;;;23.25;19.63;;;;;;;;;;4967903;28;20414;-87
2021/09/15 07:02:35;;;;;;;22.38;19.30;;;;;;;;;;4963644;28;20418;-87
2021/09/15 07:05:02;;;;;;;24.00;19.75;;;;;;;;;;4967113;28;20414;-87
2021/09/15 07:07:29;;;;;;;21.10;18.50;;;;;;;;;;4967504;28;20418;-88
2021/09/15 07:09:56;;;;;;;22.50;18.73;;;;;;;;;;4967445;28;20409;-87
2021/09/15 07:12:23;;;;;;;22.25;18.85;;;;;;;;;;4969163;28;20449;-86
2021/09/15 07:14:50;;;;;;;26.10;19.30;;;;;;;;;;4966910;28;20890;-87
2021/09/15 07:17:16;;;;;;;23.03;17.60;;;;;;;;;;4967289;28;20409;-87
2021/09/15 07:19:45;;;;;;;21.85;17.15;;;;;;;;;;4967284;28;20409;-87
2021/09/15 07:22:11;;;;;;;19.48;17.52;;;;;;;;;;4967006;28;20419;-86
2021/09/15 07:24:38;;;;;;;19.60;17.33;;;;;;;;;;4967234;28;20526;-86
2021/09/15 07:27:06;;;;;;;19.77;17.43;;;;;;;;;;4967410;28;21345;-86
2021/09/15 07:29:33;;;;;;;23.30;17.27;;;;;;;;;;4966040;28;20414;-88
2021/09/15 07:32:00;;;;;;;18.60;16.70;;;;;;;;;;4967096;28;20431;-87
2021/09/15 07:34:26;;;;;;;18.88;16.88;;;;;;;;;;4967080;28;20407;-85
2021/09/15 07:36:55;;;;;;;19.45;16.65;;;;;;;;;;4966730;28;20771;-87
2021/09/15 07:39:22;;;;;;;21.02;17.85;;;;;;;;;;4966564;28;20874;-87
2021/09/15 07:41:48;;;;;;;20.50;16.80;;;;;;;;;;4967334;28;20411;-87
2021/09/15 07:44:15;;;;;;;18.77;16.87;;;;;;;;;;4969270;28;20414;-85
2021/09/15 07:46:42;;;;;;;20.45;15.82;;;;;;;;;;4970307;28;20427;-87
2021/09/15 07:49:09;;;;;;;19.20;16.88;;;;;;;;;;4970423;28;20406;-87
2021/09/15 07:51:36;;;;;;;17.60;15.25;;;;;;;;;;4969581;28;20431;-87
2021/09/15 07:54:05;;;;;;;19.85;14.75;;;;;;;;;;4970595;28;20484;-85
2021/09/15 07:56:32;;;;;;;18.40;15.25;;;;;;;;;;4968012;28;20459;-86
2021/09/15 07:58:58;;;;;;;17.40;14.65;;;;;;;;;;4970039;28;20421;-88
2021/09/15 08:01:25;;;;;;;21.15;14.90;;;;;;;;;;4970209;28;20399;-86
2021/09/15 08:03:53;;;;;;;16.83;13.95;;;;;;;;;;4973129;28;20460;-86
2021/09/15 08:06:19;;;;;;;17.45;13.80;;;;;;;;;;4970070;28;20981;-87
2021/09/15 08:08:46;;;;;;;16.00;13.25;;;;;;;;;;4973408;28;20418;-87
2021/09/15 08:11:15;;;;;;;16.13;13.25;;;;;;;;;;4971617;28;20513;-85
2021/09/15 08:13:42;;;;;;;12.50;11.18;;;;;;;;;;4968290;28;20430;-86
2021/09/15 08:16:09;;;;;;;15.13;12.05;;;;;;;;;;4969602;28;20421;-85
2021/09/15 08:18:36;;;;;;;15.50;11.70;;;;;;;;;;4967509;28;20418;-84
2021/09/15 08:21:04;;;;;;;13.37;12.07;;;;;;;;;;4970181;28;20500;-85
2021/09/15 08:23:31;;;;;;;15.57;12.45;;;;;;;;;;4971565;28;20538;-85
2021/09/15 08:25:58;;;;;;;14.50;12.30;;;;;;;;;;4970729;28;20499;-85
2021/09/15 08:28:26;;;;;;;13.95;12.48;;;;;;;;;;4971501;28;20407;-85
2021/09/15 08:30:53;;;;;;;18.13;12.07;;;;;;;;;;4970806;28;20469;-86
2021/09/15 08:33:20;;;;;;;13.33;11.47;;;;;;;;;;4969521;28;20418;-86
2021/09/15 08:35:47;;;;;;;14.82;13.32;;;;;;;;;;4969663;28;20478;-86
2021/09/15 08:38:14;;;;;;;14.82;13.25;;;;;;;;;;4970816;28;20426;-86
2021/09/15 08:40:41;;;;;;;16.97;13.37;;;;;;;;;;4969555;28;20513;-87
2021/09/15 08:43:08;;;;;;;14.48;12.05;;;;;;;;;;4970759;28;20418;-87
2021/09/15 08:45:37;;;;;;;14.32;11.68;;;;;;;;;;4962889;28;20410;-86
2021/09/15 08:48:04;;;;;;;14.20;12.75;;;;;;;;;;4970266;28;20418;-86
2021/09/15 08:50:31;;;;;;;17.20;12.73;;;;;;;;;;4974223;28;20425;-86
2021/09/15 08:52:58;;;;;;;20.15;13.40;;;;;;;;;;4971299;28;20945;-85
2021/09/15 08:55:25;;;;;;;16.20;12.40;;;;;;;;;;4967096;28;20414;-85
2021/09/15 08:57:52;;;;;;;14.70;11.95;;;;;;;;;;4968225;28;20410;-85
2021/09/15 09:00:19;;;;;;;17.92;13.60;;;;;;;;;;4969167;28;20414;-86
2021/09/15 09:02:51;;;;;;;19.70;13.45;;;;;;;;;;4969446;28;20417;-87
2021/09/15 09:05:18;;;;;;;17.80;13.18;;;;;;;;;;4968257;28;20413;-86
2021/09/15 09:07:45;;;;;;;18.35;13.02;;;;;;;;;;4967162;28;20431;-85
2021/09/15 09:10:15;;;;;;;20.98;12.85;;;;;;;;;;4969129;28;20406;-87
2021/09/15 09:12:45;;;;;;;16.17;13.23;;;;;;;;;;4971738;28;20430;-88
2021/09/15 09:15:15;;;;;;;15.60;13.27;;;;;;;;;;4969291;28;20418;-87
2021/09/15 09:17:42;;;;;;;17.73;12.98;;;;;;;;;;4969136;28;20462;-86
2021/09/15 09:20:21;;;;;;;14.38;12.65;;;;;;;;;;4976584;28;20901;-87
2021/09/15 09:23:08;;;;;;;16.45;12.95;;;;;;;;;;4964852;28;20410;-87
2021/09/15 09:25:39;;;;;;;19.23;13.20;;;;;;;;;;4966361;28;20520;-86
2021/09/15 09:28:24;;;;;;;17.00;12.98;;;;;;;;;;4968654;28;20823;-86
2021/09/15 09:30:52;;;;;;;16.65;12.70;;;;;;;;;;4970454;28;20886;-77
2021/09/15 09:33:21;;;;;;;15.40;12.77;;;;;;;;;;4967414;28;20438;-87
2021/09/15 09:35:50;;;;;;;19.40;13.30;;;;;;;;;;4972434;28;20421;-86
2021/09/15 09:38:27;;;;;;;18.05;14.90;;;;;;;;;;4968535;28;20794;-86
2021/09/15 09:41:05;;;;;;;24.17;15.65;;;;;;;;;;4967728;28;20465;-85
2021/09/15 09:43:34;;;;;;;17.60;15.70;;;;;;;;;;4966792;28;20430;-86
2021/09/15 09:46:02;;;;;;;20.88;15.75;;;;;;;;;;4968267;28;20430;-86
2021/09/15 09:48:30;;;;;;;20.63;15.50;;;;;;;;;;4967768;28;20420;-87
2021/09/15 09:50:59;;;;;;;18.17;15.50;;;;;;;;;;4968402;28;20415;-86
2021/09/15 09:53:27;;;;;;;17.97;16.00;;;;;;;;;;4971399;28;20434;-87
2021/09/15 09:55:57;;;;;;;20.25;15.20;;;;;;;;;;4967540;28;20418;-87
2021/09/15 09:58:25;;;;;;;19.20;15.67;;;;;;;;;;4967901;28;20496;-86
2021/09/15 10:00:55;;;;;;;17.05;15.18;;;;;;;;;;4968432;28;20426;-87
2021/09/15 10:03:22;;;;;;;18.42;14.77;;;;;;;;;;4967254;28;20402;-87
2021/09/15 10:05:49;;;;;;;21.33;16.10;;;;;;;;;;4967598;28;20535;-88
2021/09/15 10:08:20;;;;;;;20.88;16.23;;;;;;;;;;4970144;28;20452;-87
2021/09/15 10:10:51;;;;;;;19.25;15.90;;;;;;;;;;4976598;28;20504;-85
2021/09/15 10:13:19;;;;;;;19.73;15.27;;;;;;;;;;4969786;28;20453;-86
2021/09/15 10:15:49;;;;;;;26.25;16.58;;;;;;;;;;4972409;28;20407;-86
2021/09/15 10:18:17;;;;;;;20.42;16.58;;;;;;;;;;4974007;28;20947;-86
2021/09/15 10:20:48;;;;;;;22.00;17.15;;;;;;;;;;4975918;28;20409;-86
2021/09/15 10:23:39;;;;;;;19.85;17.30;;;;;;;;;;4969637;28;20458;-87
2021/09/15 10:26:37;;;;;;;21.00;15.27;;;;;;;;;;4970519;28;20426;-86
2021/09/15 10:29:30;;;;;;;16.55;14.80;;;;;;;;;;4923688;28;20779;-86
2021/09/15 10:31:59;;;;;;;21.48;15.75;;;;;;;;;;4967221;28;20441;-86
2021/09/15 10:34:47;;;;;;;19.27;15.00;;;;;;;;;;4966876;28;20410;-85
2021/09/15 10:37:47;;;;;;;19.70;15.07;;;;;;;;;;4958709;28;20414;-86
2021/09/15 10:40:35;;;;;;;21.15;14.95;;;;;;;;;;4906588;29;20411;-86
2021/09/15 10:43:03;;;;;;;21.10;15.70;;;;;;;;;;4961939;28;20423;-87
2021/09/15 10:45:31;;;;;;;20.87;15.63;;;;;;;;;;4966129;28;20421;-86
2021/09/15 10:48:01;;;;;;;19.30;14.75;;;;;;;;;;4966632;28;20744;-86
2021/09/15 10:50:55;;;;;;;17.80;15.13;;;;;;;;;;4970193;28;20421;-87
2021/09/15 10:53:31;;;;;;;19.63;15.35;;;;;;;;;;4971533;28;20916;-87
2021/09/15 10:56:02;;;;;;;19.65;15.80;;;;;;;;;;4975252;28;20416;-87
2021/09/15 10:58:33;;;;;;;21.13;14.88;;;;;;;;;;4969958;28;20425;-86
2021/09/15 11:01:01;;;;;;;20.92;14.73;;;;;;;;;;4975970;28;20416;-86
2021/09/15 11:03:31;;;;;;;18.95;15.32;;;;;;;;;;4973058;28;20407;-87
2021/09/15 11:06:18;;;;;;;17.35;14.95;;;;;;;;;;4970003;28;20415;-85
2021/09/15 11:08:47;;;;;;;18.75;15.95;;;;;;;;;;4964265;28;20468;-86
2021/09/15 11:11:47;;;;;;;18.50;15.77;;;;;;;;;;4966949;28;20417;-87
2021/09/15 11:14:17;;;;;;;17.63;15.70;;;;;;;;;;4964562;28;20421;-86
2021/09/15 11:16:45;;;;;;;19.05;16.25;;;;;;;;;;4967108;28;20933;-87
2021/09/15 11:19:15;;;;;;;21.10;15.52;;;;;;;;;;4970854;28;20422;-86
2021/09/15 11:21:45;;;;;;;23.45;16.92;;;;;;;;;;4967938;28;20414;-87
2021/09/15 11:24:15;;;;;;;22.35;17.52;;;;;;;;;;4971013;28;20414;-85
2021/09/15 11:26:51;;;;;;;17.20;14.30;;;;;;;;;;4970145;28;20493;-85
2021/09/15 11:29:44;;;;;;;18.30;14.90;;;;;;;;;;4966963;28;20429;-86
2021/09/15 11:32:13;;;;;;;17.02;15.25;;;;;;;;;;4960244;28;20422;-86
2021/09/15 11:34:45;;;;;;;19.77;16.92;;;;;;;;;;4962341;28;20764;-85
2021/09/15 11:37:18;;;;;;;20.63;17.25;;;;;;;;;;4964828;28;20410;-86
2021/09/15 11:39:52;;;;;;;17.42;15.50;;;;;;;;;;4963398;28;20449;-84
2021/09/15 11:42:21;;;;;;;20.60;16.60;;;;;;;;;;4964695;28;20498;-83
2021/09/15 11:44:50;;;;;;;21.95;18.30;;;;;;;;;;4970365;28;20406;-83
2021/09/15 11:47:23;;;;;;;21.10;16.17;;;;;;;;;;4967577;28;20417;-83
2021/09/15 11:49:50;;;;;;;19.55;17.17;;;;;;;;;;4970664;28;20518;-84
2021/09/15 11:52:17;;;;;;;21.42;16.77;;;;;;;;;;4972253;28;20425;-83
2021/09/15 11:54:49;;;;;;;16.02;14.43;;;;;;;;;;4962180;28;20433;-82
2021/09/15 11:57:16;;;;;;;17.77;14.98;;;;;;;;;;4971455;28;20429;-83
2021/09/15 11:59:43;;;;;;;19.15;14.18;;;;;;;;;;4971415;28;20406;-86
2021/09/15 12:02:14;;;;;;;18.60;15.67;;;;;;;;;;4964157;28;20407;-77
2021/09/15 12:04:45;;;;;;;16.20;14.60;;;;;;;;;;4969121;28;20406;-85
2021/09/15 12:07:16;;;;;;;19.77;15.97;;;;;;;;;;4966749;28;20434;-86
2021/09/15 12:09:43;;;;;;;17.97;16.27;;;;;;;;;;4966422;28;20499;-86
2021/09/15 12:12:11;;;;;;;19.13;15.35;;;;;;;;;;4968562;28;20835;-86
2021/09/15 12:14:38;;;;;;;16.60;14.13;;;;;;;;;;4973118;28;20437;-85
2021/09/15 12:17:07;;;;;;;17.70;14.52;;;;;;;;;;4969135;28;20419;-86
2021/09/15 12:19:36;;;;;;;16.65;14.52;;;;;;;;;;4976457;28;20880;-87
2021/09/15 12:22:03;;;;;;;17.52;15.73;;;;;;;;;;4972817;28;20528;-86
2021/09/15 12:24:32;;;;;;;21.27;15.93;;;;;;;;;;4973824;28;20409;-86
2021/09/15 12:27:12;;;;;;;17.30;15.52;;;;;;;;;;4976876;28;20525;-86
2021/09/15 12:29:39;;;;;;;18.75;15.75;;;;;;;;;;4975362;28;20481;-86
2021/09/15 12:32:06;;;;;;;17.97;15.90;;;;;;;;;;4976561;28;20410;-85
2021/09/15 12:34:36;;;;;;;19.95;16.55;;;;;;;;;;4974504;28;20406;-86
2021/09/15 12:37:11;;;;;;;19.52;17.40;;;;;;;;;;4973665;28;20414;-85
2021/09/15 12:39:53;;;;;;;16.93;15.20;;;;;;;;;;4975163;28;20410;-86
2021/09/15 12:42:21;;;;;;;18.92;15.65;;;;;;;;;;4974589;28;20414;-85
2021/09/15 12:44:59;;;;;;;17.20;15.40;;;;;;;;;;4976428;28;20448;-86
2021/09/15 12:47:37;;;;;;;18.08;14.90;;;;;;;;;;4971923;28;20414;-86
2021/09/15 12:50:13;;;;;;;17.27;15.32;;;;;;;;;;4972880;28;20411;-86
2021/09/15 12:52:41;;;;;;;16.65;14.85;;;;;;;;;;4964287;28;20438;-86
2021/09/15 12:55:08;;;;;;;22.38;17.17;;;;;;;;;;4968161;28;20410;-86
2021/09/15 12:57:35;;;;;;;19.88;17.65;;;;;;;;;;4965126;28;20422;-87
2021/09/15 13:00:22;;;;;;;19.33;17.17;;;;;;;;;;4967069;28;20414;-87
2021/09/15 13:02:53;;;;;;;18.20;16.40;;;;;;;;;;4966435;28;20895;-86
2021/09/15 13:05:22;;;;;;;18.88;16.77;;;;;;;;;;4967083;28;20810;-86
2021/09/15 13:07:49;;;;;;;17.88;15.27;;;;;;;;;;4964977;28;20411;-85
2021/09/15 13:10:16;;;;;;;17.98;16.13;;;;;;;;;;4967825;28;20419;-87
2021/09/15 13:12:43;;;;;;;16.35;14.75;;;;;;;;;;4966170;28;20422;-88
2021/09/15 13:15:10;;;;;;;17.40;14.37;;;;;;;;;;4966598;28;20831;-87
2021/09/15 13:17:38;;;;;;;17.92;15.40;;;;;;;;;;4966006;28;20414;-86
2021/09/15 13:20:06;;;;;;;19.30;16.15;;;;;;;;;;4967891;28;20410;-87
2021/09/15 13:22:34;;;;;;;19.80;17.40;;;;;;;;;;4965081;28;20469;-87
2021/09/15 13:25:01;;;;;;;17.63;15.82;;;;;;;;;;4966704;28;20502;-87
2021/09/15 13:27:28;;;;;;;22.73;17.30;;;;;;;;;;4968178;28;20584;-87
2021/09/15 13:29:55;;;;;;;20.23;18.10;;;;;;;;;;4965315;28;20419;-87
2021/09/15 13:32:22;;;;;;;20.60;16.90;;;;;;;;;;4966803;28;20418;-86
2021/09/15 13:34:48;;;;;;;17.35;15.57;;;;;;;;;;4966170;28;20414;-87
2021/09/15 13:37:15;;;;;;;16.90;15.13;;;;;;;;;;4964771;28;21288;-86
2021/09/15 13:39:43;;;;;;;18.90;15.57;;;;;;;;;;4964845;28;20414;-86
2021/09/15 13:42:10;;;;;;;15.68;13.43;;;;;;;;;;4966706;28;20426;-86
2021/09/15 13:44:37;;;;;;;16.08;14.43;;;;;;;;;;4964042;28;20425;-85
2021/09/15 13:47:04;;;;;;;17.00;14.48;;;;;;;;;;4966301;28;20410;-84
2021/09/15 13:49:38;;;;;;;17.05;15.35;;;;;;;;;;4966964;28;20465;-87
2021/09/15 13:52:08;;;;;;;17.52;15.85;;;;;;;;;;4964505;28;20418;-85
2021/09/15 13:54:35;;;;;;;18.02;15.43;;;;;;;;;;4966023;28;20468;-86
2021/09/15 13:57:04;;;;;;;16.63;14.95;;;;;;;;;;4965373;28;20440;-86
2021/09/15 13:59:31;;;;;;;15.98;14.38;;;;;;;;;;4964780;28;20787;-87
2021/09/15 14:01:57;;;;;;;17.05;15.10;;;;;;;;;;4964393;28;20417;-87
2021/09/15 14:04:24;;;;;;;15.75;14.05;;;;;;;;;;4965032;28;20415;-88
2021/09/15 14:06:51;;;;;;;19.08;15.73;;;;;;;;;;4966529;28;20415;-88
2021/09/15 14:09:18;;;;;;;15.82;14.23;;;;;;;;;;4966176;28;20465;-88
2021/09/15 14:11:45;;;;;;;16.70;14.57;;;;;;;;;;4966352;28;20744;-88
2021/09/15 14:14:13;;;;;;;16.77;14.98;;;;;;;;;;4964667;28;20426;-87
2021/09/15 14:16:41;;;;;;;18.07;15.70;;;;;;;;;;4961489;28;20946;-89
2021/09/15 14:19:08;;;;;;;22.67;16.27;;;;;;;;;;4964573;28;20936;-87
2021/09/15 14:21:36;;;;;;;16.75;15.10;;;;;;;;;;4966830;28;20406;-88
2021/09/15 14:24:04;;;;;;;18.10;15.00;;;;;;;;;;4966343;28;20414;-88
2021/09/15 14:26:31;;;;;;;15.18;13.48;;;;;;;;;;4961388;28;20412;-87
2021/09/15 14:28:57;;;;;;;14.60;12.73;;;;;;;;;;4975918;28;20410;-89
2021/09/15 14:31:26;;;;;;;14.23;12.82;;;;;;;;;;4975542;28;20402;-88